Onego Monsoon — 5BKT2 — position and weather

sailwx.info

Track history (hours):
 
Tides and Currents Weather Stations Pressure Air Temp Water Temp Dewpoint Dewpoint Depression Visibility Wind Speed Wind Dir Waves Ship Positions

Onego Monsoon

Last reported at 2018-Feb-22 16:30 UTC. Time now 2018-Feb-22 17:00 UTC.
Position S 05°20' E 011°45'.

Length 117 m; draft 5.2 m.

MMSI: 210724000.

Date/timePositionNaut miles runAvg speedWind from/ knotsBaromVisibWave heightAir tempDewpointWater temp
2018-Feb-22 16:30S 05°20' E 011°45'2 4.9
2018-Feb-22 16:00S 05°18' E 011°43'3 5.1
2018-Feb-22 15:30S 05°16' E 011°42'3 5.1
2018-Feb-22 15:00S 05°14' E 011°40'3 5.5
2018-Feb-22 14:30S 05°12' E 011°38'3 5.9
2018-Feb-22 14:00S 05°10' E 011°36'3 5.9
2018-Feb-22 13:30S 05°08' E 011°35'3 5.8
2018-Feb-22 12:59S 05°05' E 011°33'3 5.9
2018-Feb-22 12:24S 05°03' E 011°30'22 0.7
2018-Feb-21 03:47S 04°47' E 011°46'14 6.3
2018-Feb-21 01:35S 04°54' E 011°34'1 6.8
2018-Feb-21 01:30S 04°54' E 011°34'3 6.7
2018-Feb-21 00:59S 04°58' E 011°32'3 6.9
2018-Feb-21 00:30S 05°01' E 011°31'3 6.3
2018-Feb-20 23:57S 05°04' E 011°31'4 7.8
2018-Feb-20 23:28S 05°07' E 011°34'4 7.8
2018-Feb-20 23:00S 05°10' E 011°36'4 7.7
2018-Feb-20 22:29S 05°13' E 011°39'4 7.6
2018-Feb-20 22:00S 05°16' E 011°41'4 7.4
2018-Feb-20 21:30S 05°18' E 011°43'4 7.4
2018-Feb-20 21:00S 05°21' E 011°46'4 7.5
2018-Feb-20 20:29S 05°24' E 011°48'4 7.5
2018-Feb-20 19:57S 05°27' E 011°51'  
2018-Feb-18 09:59S 05°33' E 012°12'  
2018-Feb-14 18:28S 05°32' E 012°10'  
Track history (hours):
 
Tides and Currents Weather Stations Pressure Air Temp Water Temp Dewpoint Dewpoint Depression Visibility Wind Speed Wind Dir Waves Ship Positions

Onego Monsoon

Last reported at 2018-Feb-22 16:30 UTC. Time now 2018-Feb-22 17:00 UTC.
Position S 05°20' E 011°45'.

Length 117 m; draft 5.2 m.

MMSI: 210724000.

Date/timePositionNaut miles runAvg speedWind from/ knotsBaromVisibWave heightAir tempDewpointWater temp
2018-Feb-22 16:30S 05°20' E 011°45'2 4.9
2018-Feb-22 16:00S 05°18' E 011°43'3 5.1
2018-Feb-22 15:30S 05°16' E 011°42'3 5.1
2018-Feb-22 15:00S 05°14' E 011°40'3 5.5
2018-Feb-22 14:30S 05°12' E 011°38'3 5.9
2018-Feb-22 14:00S 05°10' E 011°36'3 5.9
2018-Feb-22 13:30S 05°08' E 011°35'3 5.8
2018-Feb-22 12:59S 05°05' E 011°33'3 5.9
2018-Feb-22 12:24S 05°03' E 011°30'22 0.7
2018-Feb-21 03:47S 04°47' E 011°46'14 6.3
2018-Feb-21 01:35S 04°54' E 011°34'1 6.8
2018-Feb-21 01:30S 04°54' E 011°34'3 6.7
2018-Feb-21 00:59S 04°58' E 011°32'3 6.9
2018-Feb-21 00:30S 05°01' E 011°31'3 6.3
2018-Feb-20 23:57S 05°04' E 011°31'4 7.8
2018-Feb-20 23:28S 05°07' E 011°34'4 7.8
2018-Feb-20 23:00S 05°10' E 011°36'4 7.7
2018-Feb-20 22:29S 05°13' E 011°39'4 7.6
2018-Feb-20 22:00S 05°16' E 011°41'4 7.4
2018-Feb-20 21:30S 05°18' E 011°43'4 7.4
2018-Feb-20 21:00S 05°21' E 011°46'4 7.5
2018-Feb-20 20:29S 05°24' E 011°48'4 7.5
2018-Feb-20 19:57S 05°27' E 011°51'  
2018-Feb-18 09:59S 05°33' E 012°12'  
2018-Feb-14 18:28S 05°32' E 012°10'  

Dump ship's entire track history